createdAt,value
2022-11-13T00:01:26.381Z,87047.78
2022-11-13T00:04:12.789Z,87062.84
2022-11-13T00:06:59.583Z,87014.06
2022-11-13T00:09:45.303Z,87033.63
2022-11-13T00:12:30.904Z,87040.53
2022-11-13T00:15:16.761Z,87029.31
2022-11-13T00:18:03.285Z,87054.50
2022-11-13T00:20:48.637Z,87025.22
2022-11-13T00:23:35.980Z,87032.84
2022-11-13T00:26:24.629Z,87052.47
2022-11-13T00:29:10.021Z,87052.50
2022-11-13T00:31:55.674Z,87044.84
2022-11-13T00:34:47.565Z,87019.81
2022-11-13T00:37:34.143Z,87027.63
2022-11-13T00:40:19.795Z,87037.25
2022-11-13T00:43:05.549Z,87052.94
2022-11-13T00:45:51.542Z,87015.38
2022-11-13T00:48:37.330Z,87049.06
2022-11-13T00:51:23.217Z,87049.72
2022-11-13T00:54:08.778Z,87009.59
2022-11-13T00:56:54.302Z,87035.72
2022-11-13T00:59:39.674Z,87041.63
2022-11-13T01:02:25.113Z,87021.97
2022-11-13T01:05:10.881Z,87012.47
2022-11-13T01:07:56.451Z,87031.84
2022-11-13T01:10:53.229Z,87038.81
2022-11-13T01:13:40.748Z,87033.78
2022-11-13T01:16:28.388Z,87033.81
2022-11-13T01:19:14.340Z,87023.38
2022-11-13T01:22:00.393Z,87005.41
2022-11-13T01:24:46.071Z,87028.44
2022-11-13T01:27:31.645Z,86976.13
2022-11-13T01:30:17.296Z,87033.28
2022-11-13T01:33:02.695Z,87019.81
2022-11-13T01:35:47.915Z,87025.06
2022-11-13T01:38:36.566Z,87031.72
2022-11-13T01:41:24.849Z,87007.38
2022-11-13T01:44:13.670Z,86995.47
2022-11-13T01:46:59.506Z,87027.56
2022-11-13T01:49:46.708Z,86978.06
2022-11-13T01:52:36.331Z,87028.53
2022-11-13T01:55:22.018Z,86989.63
2022-11-13T01:58:10.496Z,86999.44
2022-11-13T02:00:56.252Z,86982.06
2022-11-13T02:03:41.875Z,87024.03
2022-11-13T02:06:33.466Z,86978.56
2022-11-13T02:09:24.777Z,87027.38
2022-11-13T02:12:16.301Z,87027.38
2022-11-13T02:15:05.690Z,87030.00
2022-11-13T02:17:55.633Z,87023.56
2022-11-13T02:20:50.362Z,87022.06
2022-11-13T02:23:41.634Z,87024.81
2022-11-13T02:26:29.563Z,87023.25
2022-11-13T02:29:15.548Z,86989.50
2022-11-13T02:32:01.074Z,87009.28
2022-11-13T02:34:46.591Z,86979.00
2022-11-13T02:37:32.262Z,87015.94
2022-11-13T02:40:18.727Z,87012.03
2022-11-13T02:43:04.411Z,87000.94
2022-11-13T02:45:49.791Z,86960.53
2022-11-13T02:48:35.149Z,86991.38
2022-11-13T02:51:20.261Z,87013.72
2022-11-13T02:54:05.893Z,87001.00
2022-11-13T02:56:51.780Z,87003.72
2022-11-13T02:59:37.428Z,86993.09
2022-11-13T03:02:22.788Z,87021.75
2022-11-13T03:05:13.537Z,87020.28
2022-11-13T03:07:59.469Z,87000.84
2022-11-13T03:10:44.944Z,87025.97
2022-11-13T03:13:30.517Z,86981.97
2022-11-13T03:16:17.555Z,87012.16
2022-11-13T03:19:04.073Z,86995.28
2022-11-13T03:21:49.737Z,87023.19
2022-11-13T03:24:35.172Z,87016.41
2022-11-13T03:27:21.164Z,87015.56
2022-11-13T03:30:07.550Z,86986.81
2022-11-13T03:32:55.380Z,87014.66
2022-11-13T03:35:45.477Z,87039.09
2022-11-13T03:38:32.875Z,87036.81
2022-11-13T03:41:18.183Z,87031.38
2022-11-13T03:44:03.703Z,87043.72
2022-11-13T03:46:49.337Z,87006.16
2022-11-13T03:49:34.757Z,87020.94
2022-11-13T03:52:20.430Z,87037.44
2022-11-13T03:55:06.225Z,87038.88
2022-11-13T03:57:51.663Z,87015.81
2022-11-13T04:00:38.808Z,87015.09
2022-11-13T04:03:24.651Z,87034.75
2022-11-13T04:06:10.635Z,87040.97
2022-11-13T04:08:56.210Z,87030.78
2022-11-13T04:11:41.763Z,87019.25
2022-11-13T04:14:27.150Z,87040.44
2022-11-13T04:17:12.541Z,87021.69
2022-11-13T04:19:58.199Z,87047.19
2022-11-13T04:22:43.682Z,87049.50
2022-11-13T04:25:29.370Z,87040.34
2022-11-13T04:28:14.733Z,87048.69
2022-11-13T04:31:00.319Z,87037.94
2022-11-13T04:33:46.065Z,87051.19
2022-11-13T04:36:31.546Z,87044.13
2022-11-13T04:39:17.066Z,87043.47
2022-11-13T04:42:21.011Z,87018.38
2022-11-13T04:45:07.056Z,87042.31
2022-11-13T04:47:52.552Z,86995.00
2022-11-13T04:50:38.100Z,87054.38
2022-11-13T04:53:23.565Z,87048.75
2022-11-13T04:56:09.097Z,87014.41
2022-11-13T04:58:54.475Z,87052.25
2022-11-13T05:01:40.328Z,87011.50
2022-11-13T05:04:25.720Z,87057.63
2022-11-13T05:07:11.981Z,87061.81
2022-11-13T05:09:57.326Z,87064.41
2022-11-13T05:12:42.663Z,87061.50
2022-11-13T05:15:28.248Z,87056.09
2022-11-13T05:18:13.916Z,87064.28
2022-11-13T05:20:59.614Z,87050.81
2022-11-13T05:23:45.393Z,87065.53
2022-11-13T05:26:31.290Z,87062.72
2022-11-13T05:29:16.886Z,87065.41
2022-11-13T05:32:02.715Z,87066.81
2022-11-13T05:34:48.316Z,87054.00
2022-11-13T05:37:33.693Z,87050.03
2022-11-13T05:40:18.959Z,87058.22
2022-11-13T05:43:04.348Z,87072.19
2022-11-13T05:45:49.803Z,87069.50
2022-11-13T05:48:36.054Z,87068.59
2022-11-13T05:51:24.331Z,87078.81
2022-11-13T05:54:10.832Z,87071.81
2022-11-13T05:56:56.190Z,87038.22
2022-11-13T05:59:41.617Z,87059.00
2022-11-13T06:02:27.197Z,87053.53
2022-11-13T06:05:12.650Z,87064.13
2022-11-13T06:07:58.352Z,87072.53
2022-11-13T06:10:43.893Z,87052.94
2022-11-13T06:13:30.123Z,87024.56
2022-11-13T06:16:20.469Z,86991.13
2022-11-13T06:19:08.687Z,87071.94
2022-11-13T06:21:54.204Z,87061.59
2022-11-13T06:24:39.780Z,87074.19
2022-11-13T06:27:25.102Z,87080.47
2022-11-13T06:30:10.949Z,87075.72
2022-11-13T06:32:56.604Z,87076.50
2022-11-13T06:35:42.003Z,87056.91
2022-11-13T06:38:30.221Z,87078.75
2022-11-13T06:41:17.969Z,87083.59
2022-11-13T06:44:03.679Z,87080.09
2022-11-13T06:46:49.154Z,87089.84
2022-11-13T06:49:34.463Z,87083.84
2022-11-13T06:52:20.034Z,87065.97
2022-11-13T06:55:05.934Z,87085.59
2022-11-13T06:57:51.488Z,87087.78
2022-11-13T07:00:39.777Z,87056.53
2022-11-13T07:03:27.233Z,87085.44
2022-11-13T07:06:18.984Z,87066.81
2022-11-13T07:09:04.860Z,87047.41
2022-11-13T07:11:50.048Z,87068.47
2022-11-13T07:14:35.239Z,87075.16
2022-11-13T07:17:20.792Z,87042.41
2022-11-13T07:20:06.651Z,87057.38
2022-11-13T07:22:55.932Z,87041.34
2022-11-13T07:25:41.606Z,87051.31
2022-11-13T07:28:27.322Z,87044.69
2022-11-13T07:31:14.182Z,87071.13
2022-11-13T07:33:59.520Z,87032.25
2022-11-13T07:36:44.580Z,87072.97
2022-11-13T07:39:30.085Z,87070.41
2022-11-13T07:42:15.852Z,87054.53
2022-11-13T07:45:01.342Z,87056.03
2022-11-13T07:47:47.053Z,87072.31
2022-11-13T07:50:34.187Z,87076.00
2022-11-13T07:53:20.808Z,87048.16
2022-11-13T07:56:07.053Z,87044.28
2022-11-13T07:58:52.510Z,87041.06
2022-11-13T08:01:38.541Z,87042.66
2022-11-13T08:04:24.282Z,87047.69
2022-11-13T08:07:13.082Z,87044.41
2022-11-13T08:10:00.128Z,87066.88
2022-11-13T08:12:46.182Z,87071.22
2022-11-13T08:15:32.412Z,87072.69
2022-11-13T08:18:18.209Z,87079.78
2022-11-13T08:21:11.899Z,87063.88
2022-11-13T08:24:00.646Z,87066.81
2022-11-13T08:26:46.178Z,87070.34
2022-11-13T08:29:31.652Z,87032.91
2022-11-13T08:32:19.137Z,87059.47
2022-11-13T08:35:05.325Z,87067.88
2022-11-13T08:37:50.864Z,87035.19
2022-11-13T08:40:36.341Z,87062.44
2022-11-13T08:43:21.909Z,87049.94
2022-11-13T08:46:07.894Z,87043.06
2022-11-13T08:48:53.204Z,87053.50
2022-11-13T08:51:38.843Z,87062.63
2022-11-13T08:54:24.555Z,87070.25
2022-11-13T08:57:09.920Z,87041.81
2022-11-13T08:59:55.428Z,87027.94
2022-11-13T09:02:41.150Z,87043.94
2022-11-13T09:05:27.290Z,87033.63
2022-11-13T09:08:12.722Z,87029.44
2022-11-13T09:11:02.680Z,87064.25
2022-11-13T09:13:52.940Z,87054.59
2022-11-13T09:16:38.981Z,87072.69
2022-11-13T09:19:24.561Z,87069.97
2022-11-13T09:22:11.000Z,87058.88
2022-11-13T09:24:56.610Z,87059.59
2022-11-13T09:27:42.064Z,87046.47
2022-11-13T09:30:30.071Z,87045.78
2022-11-13T09:33:15.693Z,87055.56
2022-11-13T09:36:01.098Z,87053.47
2022-11-13T09:38:46.768Z,87055.56
2022-11-13T09:41:38.022Z,87003.53
2022-11-13T09:44:39.302Z,87025.03
2022-11-13T09:47:30.549Z,87038.25
2022-11-13T09:50:26.285Z,87023.66
2022-11-13T09:53:14.756Z,87003.53
2022-11-13T09:56:25.489Z,87036.84
2022-11-13T09:59:17.019Z,87039.59
2022-11-13T10:02:11.228Z,87011.13
2022-11-13T10:05:06.748Z,87031.91
2022-11-13T10:08:05.545Z,87037.47
2022-11-13T10:11:10.081Z,87022.84
2022-11-13T10:14:12.175Z,87020.75
2022-11-13T10:17:36.140Z,87020.72
2022-11-13T10:20:34.139Z,87008.16
2022-11-13T10:23:28.567Z,87014.38
2022-11-13T10:26:19.882Z,87011.59
2022-11-13T10:29:15.679Z,87019.84
2022-11-13T10:32:22.247Z,86983.75
2022-11-13T10:35:07.820Z,87010.03
2022-11-13T10:38:08.174Z,87005.78
2022-11-13T10:41:06.959Z,86979.47
2022-11-13T10:43:59.792Z,87011.28
2022-11-13T10:46:45.059Z,87007.03
2022-11-13T10:49:30.746Z,86987.63
2022-11-13T10:52:25.735Z,87004.19
2022-11-13T10:55:18.223Z,87003.41
2022-11-13T10:58:12.600Z,86998.50
2022-11-13T11:00:58.277Z,86980.44
2022-11-13T11:03:50.508Z,86991.44
2022-11-13T11:07:17.856Z,86904.19
2022-11-13T11:09:49.891Z,86985.78
2022-11-13T11:12:35.262Z,86959.44
2022-11-13T11:15:29.530Z,86987.06
2022-11-13T11:18:26.663Z,86982.81
2022-11-13T11:21:35.028Z,86938.47
2022-11-13T11:24:30.114Z,86968.97
2022-11-13T11:27:23.287Z,86952.31
2022-11-13T11:30:23.747Z,86983.38
2022-11-13T11:33:12.186Z,86987.53
2022-11-13T11:36:13.552Z,86972.13
2022-11-13T11:39:40.578Z,86982.56
2022-11-13T11:43:08.274Z,86977.66
2022-11-13T11:45:54.057Z,86968.69
2022-11-13T11:48:40.620Z,86971.41
2022-11-13T11:51:39.976Z,86976.94
2022-11-13T11:54:51.555Z,86965.13
2022-11-13T11:57:54.893Z,86967.38
2022-11-13T12:00:49.992Z,86968.75
2022-11-13T12:03:44.771Z,86965.31
2022-11-13T12:06:50.242Z,86952.13
2022-11-13T12:09:47.615Z,86936.91
2022-11-13T12:12:54.541Z,86949.34
2022-11-13T12:16:02.337Z,86966.06
2022-11-13T12:19:11.198Z,86957.06
2022-11-13T12:22:07.780Z,86960.56
2022-11-13T12:25:01.541Z,86956.41
2022-11-13T12:28:05.259Z,86950.81
2022-11-13T12:31:06.313Z,86941.72
2022-11-13T12:34:04.095Z,86948.03
2022-11-13T12:36:50.294Z,86932.06
2022-11-13T12:40:16.223Z,86946.63
2022-11-13T12:43:07.789Z,86943.75
2022-11-13T12:45:56.004Z,86940.97
2022-11-13T12:48:47.127Z,86942.34
2022-11-13T12:51:40.682Z,86926.56
2022-11-13T12:54:37.470Z,86918.91
2022-11-13T12:57:30.168Z,86950.94
2022-11-13T13:00:31.101Z,86936.31
2022-11-13T13:03:28.619Z,86948.09
2022-11-13T13:06:28.460Z,86914.97
2022-11-13T13:09:44.889Z,86945.31
2022-11-13T13:12:49.655Z,86945.94
2022-11-13T13:15:42.015Z,86954.38
2022-11-13T13:18:33.863Z,86960.66
2022-11-13T13:21:20.805Z,86894.09
2022-11-13T13:24:30.014Z,86940.59
2022-11-13T13:27:28.192Z,86938.63
2022-11-13T13:30:25.306Z,86939.34
2022-11-13T13:33:22.227Z,86951.19
2022-11-13T13:36:43.153Z,86940.13
2022-11-13T13:39:52.999Z,86946.78
2022-11-13T13:43:06.486Z,86932.31
2022-11-13T13:46:22.103Z,86948.97
2022-11-13T13:49:14.671Z,86946.91
2022-11-13T13:52:00.449Z,86925.44
2022-11-13T13:54:47.783Z,86942.13
2022-11-13T13:57:39.879Z,86947.00
2022-11-13T14:00:26.445Z,86945.63
2022-11-13T14:03:30.177Z,86947.72
2022-11-13T14:06:20.564Z,86953.34
2022-11-13T14:09:19.205Z,86946.38
2022-11-13T14:12:18.677Z,86949.22
2022-11-13T14:15:06.135Z,86940.94
2022-11-13T14:17:52.340Z,86947.91
2022-11-13T14:20:45.060Z,86925.03
2022-11-13T14:23:44.376Z,86922.97
2022-11-13T14:26:30.448Z,86938.22
2022-11-13T14:29:23.287Z,86943.75
2022-11-13T14:32:22.304Z,86941.72
2022-11-13T14:35:09.685Z,86911.91
2022-11-13T14:37:56.161Z,86940.34
2022-11-13T14:40:48.076Z,86918.88
2022-11-13T14:43:34.204Z,86913.31
2022-11-13T14:46:27.481Z,86938.31
2022-11-13T14:49:30.304Z,86911.97
2022-11-13T14:52:29.177Z,86911.97
2022-11-13T14:55:23.763Z,86932.75
2022-11-13T14:58:13.963Z,86935.53
2022-11-13T15:01:23.349Z,86901.53
2022-11-13T15:04:08.933Z,86921.63
2022-11-13T15:07:00.893Z,86889.72
2022-11-13T15:09:46.216Z,86900.09
2022-11-13T15:12:31.895Z,86879.94
2022-11-13T15:15:19.105Z,86927.13
2022-11-13T15:18:05.593Z,86931.25
2022-11-13T15:20:51.180Z,86935.41
2022-11-13T15:23:36.979Z,86912.47
2022-11-13T15:26:22.346Z,86924.97
2022-11-13T15:29:08.211Z,86904.81
2022-11-13T15:31:54.710Z,86879.78
2022-11-13T15:34:40.714Z,86928.38
2022-11-13T15:37:26.520Z,86935.97
2022-11-13T15:40:13.790Z,86933.88
2022-11-13T15:43:01.395Z,86897.13
2022-11-13T15:45:47.033Z,86933.88
2022-11-13T15:48:32.765Z,86899.03
2022-11-13T15:51:43.829Z,86935.09
2022-11-13T15:54:33.506Z,86928.06
2022-11-13T15:57:24.401Z,86912.75
2022-11-13T16:00:15.007Z,86926.66
2022-11-13T16:03:00.856Z,86923.81
2022-11-13T16:05:46.446Z,86917.50
2022-11-13T16:08:31.986Z,86943.09
2022-11-13T16:11:19.745Z,86941.72
2022-11-13T16:14:05.855Z,86944.50
2022-11-13T16:16:52.197Z,86947.19
2022-11-13T16:19:38.749Z,86945.09
2022-11-13T16:22:26.067Z,86930.41
2022-11-13T16:25:14.403Z,86920.75
2022-11-13T16:27:59.931Z,86940.06
2022-11-13T16:30:46.371Z,86912.19
2022-11-13T16:33:32.158Z,86957.97
2022-11-13T16:36:22.433Z,86936.34
2022-11-13T16:39:16.493Z,86957.88
2022-11-13T16:42:02.358Z,86953.09
2022-11-13T16:44:48.136Z,86943.31
2022-11-13T16:47:33.735Z,86949.44
2022-11-13T16:50:24.144Z,86918.75
2022-11-13T16:53:11.133Z,86953.44
2022-11-13T16:55:56.967Z,86955.56
2022-11-13T16:58:42.692Z,86947.84
2022-11-13T17:01:28.168Z,86935.91
2022-11-13T17:04:16.751Z,86954.59
2022-11-13T17:07:02.648Z,86953.16
2022-11-13T17:09:58.852Z,86956.69
2022-11-13T17:12:54.258Z,86949.06
2022-11-13T17:15:39.841Z,86955.81
2022-11-13T17:18:25.204Z,86942.09
2022-11-13T17:21:11.436Z,86943.44
2022-11-13T17:24:01.465Z,86935.72
2022-11-13T17:26:46.715Z,86956.53
2022-11-13T17:29:32.453Z,86947.59
2022-11-13T17:32:18.327Z,86914.50
2022-11-13T17:35:06.026Z,86948.75
2022-11-13T17:37:51.529Z,86929.25
2022-11-13T17:40:37.053Z,86957.06
2022-11-13T17:43:22.669Z,86959.75
2022-11-13T17:46:17.208Z,86957.00
2022-11-13T17:49:03.144Z,86963.91
2022-11-13T17:51:48.687Z,86923.59
2022-11-13T17:54:34.192Z,86952.84
2022-11-13T17:57:24.180Z,86955.69
2022-11-13T18:00:12.870Z,86936.06
2022-11-13T18:02:58.595Z,86918.03
2022-11-13T18:05:44.987Z,86952.13
2022-11-13T18:08:30.458Z,86923.59
2022-11-13T18:11:21.561Z,86933.34
2022-11-13T18:14:06.836Z,86936.66
2022-11-13T18:16:52.507Z,86937.50
2022-11-13T18:19:38.495Z,86943.69
2022-11-13T18:22:23.991Z,86929.75
2022-11-13T18:25:09.690Z,86944.44
2022-11-13T18:27:55.417Z,86944.31
2022-11-13T18:30:41.302Z,86910.88
2022-11-13T18:33:26.952Z,86892.91
2022-11-13T18:36:12.831Z,86944.91
2022-11-13T18:38:59.468Z,86925.53
2022-11-13T18:41:44.784Z,86841.94
2022-11-13T18:44:30.377Z,86935.78
2022-11-13T18:47:15.893Z,86914.97
2022-11-13T18:50:01.273Z,86925.31
2022-11-13T18:52:46.881Z,86941.44
2022-11-13T18:55:32.199Z,86917.06
2022-11-13T18:58:18.036Z,86940.03
2022-11-13T19:01:20.525Z,86940.69
2022-11-13T19:04:24.329Z,86932.31
2022-11-13T19:07:12.401Z,86922.56
2022-11-13T19:09:58.384Z,86937.19
2022-11-13T19:12:43.706Z,86921.13
2022-11-13T19:15:29.532Z,86911.41
2022-11-13T19:18:15.202Z,86926.72
2022-11-13T19:21:09.241Z,86934.34
2022-11-13T19:23:55.426Z,86916.09
2022-11-13T19:26:41.912Z,86939.03
2022-11-13T19:29:27.564Z,86925.84
2022-11-13T19:32:13.028Z,86936.91
2022-11-13T19:34:58.561Z,86935.59
2022-11-13T19:37:44.224Z,86943.28
2022-11-13T19:40:29.924Z,86952.06
2022-11-13T19:43:15.517Z,86924.28
2022-11-13T19:46:05.673Z,86945.88
2022-11-13T19:48:51.818Z,86911.75
2022-11-13T19:51:37.727Z,86922.16
2022-11-13T19:54:23.419Z,86936.63
2022-11-13T19:57:09.002Z,86901.81
2022-11-13T19:59:54.401Z,86910.13
2022-11-13T20:02:40.087Z,86932.44
2022-11-13T20:05:25.263Z,86933.81
2022-11-13T20:08:12.940Z,86933.81
2022-11-13T20:11:04.074Z,86933.06
2022-11-13T20:13:49.501Z,86932.25
2022-11-13T20:16:34.959Z,86933.53
2022-11-13T20:19:20.381Z,86900.09
2022-11-13T20:22:05.859Z,86898.03
2022-11-13T20:24:51.275Z,86922.38
2022-11-13T20:27:37.531Z,86891.09
2022-11-13T20:30:23.209Z,86912.66
2022-11-13T20:33:08.580Z,86900.81
2022-11-13T20:35:54.670Z,86909.19
2022-11-13T20:38:41.037Z,86904.16
2022-11-13T20:41:26.486Z,86857.56
2022-11-13T20:44:12.565Z,86905.59
2022-11-13T20:46:58.241Z,86875.13
2022-11-13T20:49:43.790Z,86904.31
2022-11-13T20:52:29.270Z,86872.91
2022-11-13T20:55:14.247Z,86905.53
2022-11-13T20:57:59.821Z,86869.22
2022-11-13T21:00:45.406Z,86883.19
2022-11-13T21:03:31.116Z,86906.09
2022-11-13T21:06:19.385Z,86876.25
2022-11-13T21:09:05.704Z,86899.91
2022-11-13T21:11:51.331Z,86886.00
2022-11-13T21:14:36.790Z,86905.38
2022-11-13T21:17:22.511Z,86842.00
2022-11-13T21:20:08.551Z,86899.78
2022-11-13T21:22:54.344Z,86892.63
2022-11-13T21:25:40.353Z,86903.59
2022-11-13T21:28:30.594Z,86903.34
2022-11-13T21:31:19.517Z,86901.91
2022-11-13T21:34:04.972Z,86871.28
2022-11-13T21:36:50.507Z,86903.25
2022-11-13T21:39:35.723Z,86899.84
2022-11-13T21:42:21.054Z,86895.44
2022-11-13T21:45:06.922Z,86890.66
2022-11-13T21:47:53.127Z,86903.97
2022-11-13T21:50:38.882Z,86901.16
2022-11-13T21:53:24.468Z,86903.19
2022-11-13T21:56:15.436Z,86895.06
2022-11-13T21:59:01.806Z,86874.00
2022-11-13T22:01:47.375Z,86874.56
2022-11-13T22:04:32.824Z,86890.72
2022-11-13T22:07:18.408Z,86885.09
2022-11-13T22:10:08.175Z,86885.72
2022-11-13T22:12:54.081Z,86882.78
2022-11-13T22:15:39.673Z,86882.06
2022-11-13T22:18:25.253Z,86851.53
2022-11-13T22:21:13.139Z,86876.50
2022-11-13T22:24:00.120Z,86843.22
2022-11-13T22:26:45.966Z,86886.31
2022-11-13T22:29:31.477Z,86856.22
2022-11-13T22:32:17.053Z,86877.19
2022-11-13T22:35:02.320Z,86835.38
2022-11-13T22:37:47.812Z,86869.63
2022-11-13T22:40:33.502Z,86872.38
2022-11-13T22:43:19.251Z,86866.88
2022-11-13T22:46:06.464Z,86825.59
2022-11-13T22:48:53.733Z,86855.66
2022-11-13T22:51:41.761Z,86859.75
2022-11-13T22:54:27.519Z,86820.75
2022-11-13T22:57:12.869Z,86854.28
2022-11-13T22:59:58.329Z,86838.84
2022-11-13T23:02:47.288Z,86856.97
2022-11-13T23:05:35.938Z,86859.75
2022-11-13T23:08:21.398Z,86841.59
2022-11-13T23:11:11.127Z,86861.72
2022-11-13T23:13:59.229Z,86866.41
2022-11-13T23:16:44.928Z,86864.41
2022-11-13T23:19:30.384Z,86863.56
2022-11-13T23:22:15.751Z,86852.47
2022-11-13T23:25:01.252Z,86866.41
2022-11-13T23:27:47.875Z,86862.94
2022-11-13T23:30:33.287Z,86867.03
2022-11-13T23:33:19.457Z,86828.78
2022-11-13T23:36:06.353Z,86843.88
2022-11-13T23:38:51.803Z,86852.31
2022-11-13T23:41:37.276Z,86837.78
2022-11-13T23:44:22.919Z,86823.72
2022-11-13T23:47:08.500Z,86815.97
2022-11-13T23:49:54.152Z,86818.09
2022-11-13T23:52:39.598Z,86838.44
2022-11-13T23:55:25.130Z,86822.91
2022-11-13T23:58:16.579Z,86848.16
